• Join FlightAware (Why Join?)
  • Login
  • US Flag 
07:58PM EDT


 

Airport Tracker/Info


-or-


 

Live Flight TrackerFlight Track Log ✈ TAM3387 ✈ 26-Apr-2013 ✈ SBBE / BEL - SBGR / GRU

Flight Track Log - Related Links

Times and Time Zones

All times are in EDT time to prevent confusion due to time zone crossing. See the TAM3387 flight status page for this flight to view local times or setup timezone preferences in your user account.

Time Position Orientation Groundspeed Altitude Reporting Facility
EDT Latitude Longitude Course Direction KTS MPH feet Rate Location/Type
06:35AM -3.9239 -48.2581 175° South  Level Estimated
06:36AM -4.0300 -48.2490 175° South  Level Estimated
06:37AM -4.1360 -48.2399 175° South  Level Estimated
06:38AM -4.2420 -48.2308 175° South  Level Estimated
06:39AM -4.3481 -48.2216 175° South  Level Estimated
06:40AM -4.4541 -48.2125 175° South  Level Estimated
06:41AM -4.5601 -48.2034 175° South  Level Estimated
06:42AM -4.6662 -48.1942 175° South  Level Estimated
06:43AM -4.7722 -48.1851 175° South  Level Estimated
06:44AM -4.8782 -48.1760 175° South  Level Estimated
06:45AM -4.9842 -48.1668 175° South  Level Estimated
06:46AM -5.0903 -48.1577 175° South  Level Estimated
06:47AM -5.1963 -48.1486 175° South  Level Estimated
06:48AM -5.3023 -48.1394 175° South  Level Estimated
06:49AM -5.4248 -48.1288 175° South  Level Estimated
06:50AM -5.5474 -48.1183 175° South  Level Estimated
06:51AM -5.6699 -48.1077 175° South  Level Estimated
06:52AM -5.7924 -48.0971 175° South  Level Estimated
06:53AM -5.9149 -48.0865 175° South  Level Estimated
06:54AM -6.0374 -48.0759 175° South  Level Estimated
06:55AM -6.1600 -48.0653 175° South  Level Estimated
06:56AM -6.2825 -48.0547 175° South  Level Estimated
06:57AM -6.4050 -48.0441 175° South  Level Estimated
06:58AM -6.5275 -48.0335 175° South  Level Estimated
06:59AM -6.6501 -48.0228 175° South  Level Estimated
07:00AM -6.7726 -48.0122 175° South  Level Estimated
07:01AM -6.8951 -48.0016 175° South  Level Estimated
07:02AM -7.0176 -47.9909 175° South  Level Estimated
07:03AM -7.1401 -47.9803 175° South  Level Estimated
07:04AM -7.2627 -47.9697 175° South  Level Estimated
07:05AM -7.3852 -47.9590 175° South  Level Estimated
07:06AM -7.5077 -47.9483 175° South  Level Estimated
07:07AM -7.6302 -47.9377 175° South  Level Estimated
07:08AM -7.7527 -47.9270 175° South  Level Estimated
07:09AM -7.8752 -47.9163 175° South  Level Estimated
07:09AM -8.2310 -48.3860 175° South 473 544 35,000  Level FlightAware
07:10AM -7.9977 -47.9056 175° South  Level Estimated
07:10AM -8.3670 -48.3840 179° South 473 544 35,000  Level FlightAware
07:10AM -8.4420 -48.3830 179° South 472 543 35,000  Level FlightAware
07:11AM -8.5780 -48.3810 179° South 471 542 35,000  Level FlightAware
07:14AM -8.8487 -48.3483 173° South  Level Estimated
07:14AM -8.8930 -48.3770 173° South 466 536 35,000  Level FlightAware
07:15AM -9.1200 -48.3740 173° South 466 536 35,000  Level FlightAware
07:16AM -9.1127 -48.3499 173° South  Level Estimated
07:16AM -9.2280 -48.3730 179° South 468 539 35,000  Level FlightAware
07:17AM -9.3150 -48.3720 179° South 468 539 35,000  Level FlightAware
07:18AM -9.3910 -48.3700 179° South 469 540 35,000  Level FlightAware
07:18AM -9.5000 -48.3690 179° South 468 539 35,000  Level FlightAware
07:19AM -9.5870 -48.3680 179° South 468 539 35,000  Level FlightAware
07:20AM -9.6620 -48.3660 178° South 468 539 35,000  Level FlightAware
07:20AM -9.7380 -48.3650 179° South 469 540 35,000  Level FlightAware
07:21AM -9.8470 -48.3640 179° South 470 541 35,000  Level FlightAware
07:22AM -9.9430 -48.3630 179° South 469 540 35,000  Level FlightAware
07:23AM -9.9970 -48.3620 179° South 467 537 35,000  Level FlightAware
07:23AM -10.1650 -48.3600 179° South 467 537 35,000  Level FlightAware
07:24AM -10.2490 -48.3580 179° South 467 537 35,000  Level FlightAware
07:25AM -10.2510 -48.3580 180° South 468 539 35,000  Level FlightAware
07:26AM -10.3250 -48.3570 179° South 468 539 35,000  Level FlightAware
07:26AM -10.2450 -48.3580 359° North 468 539 35,000  Level FlightAware
07:28AM -10.7140 -48.3320 177° South 467 537 35,000  Level FlightAware
07:28AM -10.7880 -48.3270 176° South 467 537 35,000  Level FlightAware
07:29AM -10.8890 -48.3220 177° South 464 534 35,000  Level FlightAware
07:30AM -10.9860 -48.3170 177° South 463 533 35,000  Level FlightAware
07:30AM -11.0720 -48.3120 177° South 466 536 35,000  Level FlightAware
07:31AM -11.1690 -48.3060 177° South 466 536 35,000  Level FlightAware
07:32AM -11.2560 -48.3010 177° South 467 537 35,000  Level FlightAware
07:33AM -11.3400 -48.2960 177° South 467 537 35,000  Level FlightAware
07:33AM -11.4400 -48.2900 177° South 468 539 35,000  Level FlightAware
07:34AM -11.5290 -48.2840 176° South 468 539 35,000  Level FlightAware
07:35AM -11.6220 -48.2790 177° South 467 537 35,000  Level FlightAware
07:36AM -11.7330 -48.2720 176° South 467 537 35,000  Level FlightAware
07:36AM -11.7310 -48.2720 360° North 468 539 35,000  Level FlightAware
07:37AM -11.8230 -48.2650 176° South 468 539 35,000  Level FlightAware
07:38AM -11.8970 -48.2600 176° South 468 539 35,000  Level FlightAware
07:38AM -11.9700 -48.2550 176° South 468 539 35,000  Level FlightAware
07:39AM -12.0430 -48.2490 175° South 468 539 35,000  Level FlightAware
07:39AM -11.6850 -48.2750 356° North 35,000  Level FlightAware
07:42AM -11.9650 -48.2344 172° South  Level Estimated
07:43AM -12.0868 -48.2167 172° South  Level Estimated
07:44AM -12.2085 -48.1990 172° South  Level Estimated
07:45AM -12.3303 -48.1813 172° South  Level Estimated
07:46AM -12.4520 -48.1635 172° South  Level Estimated
07:47AM -12.5737 -48.1458 172° South  Level Estimated
07:48AM -12.6955 -48.1280 172° South  Level Estimated
07:49AM -12.8172 -48.1102 172° South  Level Estimated
07:50AM -12.9390 -48.0924 172° South  Level Estimated
07:51AM -13.0607 -48.0746 172° South  Level Estimated
07:52AM -13.1825 -48.0567 172° South  Level Estimated
07:53AM -13.3042 -48.0389 172° South  Level Estimated
07:54AM -13.4259 -48.0210 172° South  Level Estimated
07:55AM -13.5477 -48.0031 172° South  Level Estimated
07:56AM -13.6694 -47.9852 172° South  Level Estimated
07:57AM -13.7911 -47.9673 172° South  Level Estimated
07:57AM -14.4990 -48.1050 172° South 473 544 36,000  Level FlightAware
07:57AM -14.5960 -48.0990 177° South 476 548 36,000  Level FlightAware
07:58AM -14.6930 -48.0950 178° South 476 548 36,000  Level FlightAware
07:59AM -14.7770 -48.0910 177° South 477 549 36,000  Level FlightAware
07:59AM -14.8700 -48.0870 178° South 477 549 36,000  Level FlightAware
08:00AM -14.9700 -48.0820 177° South 478 550 36,000  Level FlightAware
08:01AM -15.0450 -48.0770 176° South 481 554 36,000  Level FlightAware
08:02AM -15.1610 -48.0660 175° South 481 554 36,000  Level FlightAware
08:02AM -15.2370 -48.0590 175° South 480 552 36,000  Level FlightAware
08:03AM -15.3320 -48.0540 177° South 479 551 36,000  Level FlightAware
08:04AM -15.4370 -48.0480 177° South 478 550 36,000  Level FlightAware
08:04AM -15.5150 -48.0430 176° South 477 549 36,000  Level FlightAware
08:05AM -15.6230 -48.0360 176° South 477 549 36,000  Level FlightAware
08:06AM -15.6810 -48.0330 177° South 477 549 36,000  Level FlightAware
08:06AM -15.8020 -48.0250 176° South 476 548 36,000  Level FlightAware
08:07AM -15.9120 -48.0180 176° South 477 549 36,000  Level FlightAware
08:08AM -16.0060 -48.0110 176° South 477 549 36,000  Level FlightAware
08:09AM -16.1220 -47.9880 169° South 479 551 36,000  Level FlightAware
08:10AM -16.2420 -47.9730 173° South 479 551 36,000  Level FlightAware
08:10AM -16.3280 -47.9650 175° South 479 551 36,000  Level FlightAware
08:12AM -16.4900 -47.9530 176° South 478 550 36,000  Level FlightAware
08:12AM -16.5800 -47.9460 176° South 476 548 36,000  Level FlightAware
08:13AM -16.6790 -47.9380 176° South 476 548 36,000  Level FlightAware
08:14AM -16.7550 -47.9320 176° South 476 548 36,000  Level FlightAware
08:15AM -16.8720 -47.9180 173° South 477 549 36,000  Level FlightAware
08:15AM -16.9460 -47.9070 172° South 477 549 36,000  Level FlightAware
08:16AM -17.0200 -47.8960 172° South 477 549 36,000  Level FlightAware
08:17AM -17.0950 -47.8850 172° South 477 549 36,000  Level FlightAware
08:17AM -17.1880 -47.8710 172° South 477 549 36,000  Level FlightAware
08:18AM -17.2620 -47.8600 172° South 477 549 36,000  Level FlightAware
08:19AM -17.3360 -47.8490 172° South 477 549 36,000  Level FlightAware
08:19AM -17.4110 -47.8380 172° South 477 549 36,000  Level FlightAware
08:20AM -17.4850 -47.8270 172° South 477 549 36,000  Level FlightAware
08:21AM -17.5780 -47.8140 172° South 477 549 36,000  Level FlightAware
08:22AM -17.6520 -47.8030 172° South 477 549 36,000  Level FlightAware
08:22AM -17.7260 -47.7920 172° South 477 549 36,000  Level FlightAware
08:23AM -17.8010 -47.7810 172° South 477 549 36,000  Level FlightAware
08:24AM -17.8750 -47.7700 172° South 477 549 36,000  Level FlightAware
08:26AM -18.1114 -47.7165 168° South  Level Estimated
08:26AM -18.3340 -47.7110 168° South 36,000  Level FlightAware
08:29AM -18.6500 -47.6364 167° South  Level Estimated
08:29AM -18.7540 -47.6520 167° South 472 543 36,000  Level FlightAware
08:30AM -18.8770 -47.6340 172° South 471 542 36,000  Level FlightAware
08:31AM -18.9640 -47.6220 173° South 470 541 36,000  Level FlightAware
08:33AM -19.1894 -47.5655 167° South  Level Estimated
08:34AM -19.3090 -47.5355 167° South  Level Estimated
08:35AM -19.4287 -47.5054 167° South  Level Estimated
08:36AM -19.5483 -47.4752 167° South  Level Estimated
08:36AM -19.7370 -47.5110 167° South 485 558 36,000  Level FlightAware
08:37AM -19.6679 -47.4450 167° South  Level Estimated
08:37AM -19.8400 -47.4960 172° South 484 557 36,000  Level FlightAware
08:38AM -19.9280 -47.4840 173° South 481 554 36,000  Level FlightAware
08:39AM -20.0200 -47.4710 172° South 479 551 36,000  Level FlightAware
08:39AM -20.1100 -47.4580 172° South 478 550 36,000  Level FlightAware
08:40AM -20.2520 -47.4370 172° South 477 549 36,000  Level FlightAware
08:41AM -20.3740 -47.4200 173° South 478 550 36,000  Level FlightAware
08:42AM -20.4590 -47.4070 172° South 478 550 36,000  Level FlightAware
08:42AM -20.5360 -47.3960 172° South 479 551 36,000  Level FlightAware
08:43AM -20.6040 -47.3860 172° South 483 556 36,000  Level FlightAware
08:44AM -20.7720 -47.3620 172° South 487 560 36,000  Level FlightAware
08:45AM -20.8740 -47.3470 172° South 487 560 36,000  Level FlightAware
08:45AM -20.9630 -47.3340 172° South 487 560 36,000  Level FlightAware
08:46AM -21.0640 -47.3200 173° South 485 558 36,000  Level FlightAware
08:47AM -21.1500 -47.3070 172° South 483 556 36,000  Level FlightAware
08:48AM -21.2550 -47.2920 172° South 482 555 36,000  Level FlightAware
08:48AM -21.3430 -47.2790 172° South 481 554 36,000  Level FlightAware
08:49AM -21.4320 -47.2660 172° South 481 554 36,000  Level FlightAware
08:50AM -21.5280 -47.2520 172° South 479 551 36,000  Level FlightAware
08:50AM -21.6170 -47.2390 172° South 472 543 36,000  Level FlightAware
08:51AM -21.7020 -47.2260 172° South 468 539 36,000 -960 Level FlightAware
08:52AM -21.8020 -47.2120 173° South 474 545 34,700 -2,280 Descending FlightAware
08:52AM -21.8880 -47.1990 172° South 472 543 32,800 -2,640 Descending FlightAware
08:53AM -21.9760 -47.1860 172° South 464 534 31,200 -2,220 Descending FlightAware
08:54AM -22.0670 -47.1720 172° South 457 526 29,700 -2,100 Descending FlightAware
08:54AM -22.1450 -47.1610 173° South 459 528 28,300 -2,100 Descending FlightAware
08:55AM -22.2340 -47.1480 172° South 456 525 26,800 -2,100 Descending FlightAware
08:56AM -22.3120 -47.1360 172° South 453 521 25,500 -2,160 Descending FlightAware
08:57AM -22.4100 -47.1210 172° South 438 504 23,800 -2,220 Descending FlightAware
08:57AM -22.4940 -47.1090 172° South 427 491 22,200 -2,280 Descending FlightAware
08:58AM -22.5740 -47.0960 171° South 419 482 20,800 -2,100 Descending FlightAware
08:59AM -22.6490 -47.0660 160° South 413 475 19,300 -2,040 Descending FlightAware
08:59AM -22.7130 -47.0400 159° South 405 466 18,100 -2,040 Descending FlightAware
09:00AM -22.7920 -47.0070 159° South 397 457 16,600 -2,040 Descending FlightAware
09:01AM -22.8550 -46.9800 158° South 387 445 15,400 -2,580 Descending FlightAware
09:01AM -22.9300 -46.9490 159° South 380 437 13,000 -2,880 Descending FlightAware
09:02AM -23.0040 -46.9180 159° South 346 398 10,900 -2,160 Descending FlightAware
09:03AM -23.0490 -46.8990 159° South 310 357 10,300 -1,500 Descending FlightAware
09:04AM -23.1200 -46.8690 159° South 292 336 8,800 -1,740 Descending FlightAware
09:04AM -23.1520 -46.8530 155° Southeast 289 333 8,000 -1,680 Descending FlightAware
09:05AM -23.1870 -46.8330 152° Southeast 291 335 7,300 -1,320 Descending FlightAware
09:05AM -23.2170 -46.8160 152° Southeast 276 318 6,800 -1,140 Descending FlightAware
09:05AM -23.2510 -46.7970 153° Southeast 269 310 6,300 -1,200 Descending FlightAware
09:06AM -23.2850 -46.7780 153° Southeast 275 316 5,600 -1,380 Descending FlightAware
09:06AM -23.2960 -46.7690 143° Southeast 265 305 5,400 -600 Descending FlightAware
09:07AM -23.3240 -46.7460 143° Southeast 248 285 5,200 -420 Descending FlightAware
09:07AM -23.3390 -46.7350 146° Southeast 242 278 5,100 -300 Descending FlightAware
09:07AM -23.3620 -46.7160 143° Southeast 242 278 5,000 -240 Descending FlightAware
09:08AM -23.3900 -46.6940 144° Southeast 241 277 4,900 -180 Descending FlightAware
09:08AM -23.4020 -46.6840 143° Southeast 223 257 4,900 -300 Level FlightAware
09:08AM -23.4230 -46.6680 145° Southeast 219 252 4,700 -480 Descending FlightAware
09:09AM -23.4480 -46.6480 144° Southeast 204 235 4,500 -360 Descending FlightAware
09:09AM -23.4670 -46.6310 141° Southeast 210 242 4,400 -180 Descending FlightAware
09:10AM -23.4710 -46.6160 106° East 203 234 4,400 -420 Level FlightAware
09:10AM -23.4690 -46.6020 81° East 190 219 4,200 -780 Descending FlightAware
09:10AM -23.4640 -46.5800 76° East 174 200 3,900 -900 Descending FlightAware
09:11AM -23.4610 -46.5670 76° East 167 192 3,600 -960 Descending FlightAware
09:11AM -23.4540 -46.5440 72° East 151 174 3,200 -780 Descending FlightAware
09:11AM -23.4490 -46.5260 73° East 141 162 2,900 -780 Descending FlightAware
09:12AM -23.4440 -46.5060 75° East 139 160 2,500 -720 Descending FlightAware
09:12AM -23.4380 -46.4850 73° East 138 159 2,200 -600 Descending FlightAware
09:15AM -23.4321 -46.4695 48° Northeast  Level Estimated